createdAt,value
2018-08-04T00:00:30.821Z,5.00
2018-08-04T00:03:00.091Z,6.07
2018-08-04T00:05:29.382Z,5.70
2018-08-04T00:07:58.657Z,5.97
2018-08-04T00:10:28.016Z,5.80
2018-08-04T00:12:57.363Z,5.70
2018-08-04T00:15:26.717Z,4.23
2018-08-04T00:17:56.026Z,4.00
2018-08-04T00:20:25.310Z,3.73
2018-08-04T00:22:55.746Z,3.90
2018-08-04T00:25:25.022Z,3.60
2018-08-04T00:27:54.283Z,4.30
2018-08-04T00:30:23.593Z,4.40
2018-08-04T00:32:52.844Z,4.00
2018-08-04T00:35:22.145Z,3.60
2018-08-04T00:37:51.563Z,3.60
2018-08-04T00:40:26.647Z,3.60
2018-08-04T00:42:56.327Z,4.30
2018-08-04T00:45:25.613Z,3.87
2018-08-04T00:47:54.906Z,3.73
2018-08-04T00:50:24.225Z,2.80
2018-08-04T00:52:53.485Z,3.00
2018-08-04T00:55:23.837Z,3.30
2018-08-04T00:57:53.151Z,3.20
2018-08-04T01:00:22.414Z,3.40
2018-08-04T01:02:51.775Z,3.57
2018-08-04T01:05:21.484Z,3.80
2018-08-04T01:07:50.782Z,3.90
2018-08-04T01:10:20.046Z,4.00
2018-08-04T01:12:49.332Z,4.67
2018-08-04T01:15:18.742Z,4.20
2018-08-04T01:17:48.023Z,4.13
2018-08-04T01:20:17.306Z,4.80
2018-08-04T01:22:46.599Z,4.70
2018-08-04T01:25:15.848Z,4.47
2018-08-04T01:27:45.958Z,5.00
2018-08-04T01:30:15.245Z,4.80
2018-08-04T01:32:44.538Z,4.23
2018-08-04T01:35:13.890Z,3.83
2018-08-04T01:37:43.760Z,3.87
2018-08-04T01:40:12.988Z,4.20
2018-08-04T01:42:42.310Z,4.63
2018-08-04T01:45:11.575Z,4.63
2018-08-04T01:47:40.844Z,4.63
2018-08-04T01:50:10.353Z,4.80
2018-08-04T01:52:39.650Z,4.43
2018-08-04T01:55:09.002Z,5.50
2018-08-04T01:57:38.267Z,4.53
2018-08-04T02:00:08.335Z,4.50
2018-08-04T02:02:37.579Z,4.10
2018-08-04T02:05:07.300Z,4.27
2018-08-04T02:07:36.563Z,4.87
2018-08-04T02:10:05.978Z,4.00
2018-08-04T02:12:35.538Z,4.70
2018-08-04T02:15:04.808Z,4.23
2018-08-04T02:17:34.038Z,4.07
2018-08-04T02:20:03.321Z,3.80
2018-08-04T02:22:32.805Z,3.57
2018-08-04T02:25:02.050Z,3.70
2018-08-04T02:27:31.348Z,3.50
2018-08-04T02:30:00.740Z,3.43
2018-08-04T02:32:30.021Z,3.37
2018-08-04T02:34:59.824Z,3.20
2018-08-04T02:37:29.131Z,3.40
2018-08-04T02:39:58.732Z,3.90
2018-08-04T02:42:28.006Z,3.50
2018-08-04T02:44:57.300Z,3.90
2018-08-04T02:47:26.576Z,3.80
2018-08-04T02:49:55.944Z,3.53
2018-08-04T02:52:25.212Z,3.60
2018-08-04T02:54:54.221Z,3.60
2018-08-04T02:57:23.848Z,3.67
2018-08-04T02:59:53.205Z,4.20
2018-08-04T03:02:22.466Z,5.13
2018-08-04T03:04:51.798Z,3.77
2018-08-04T03:07:21.068Z,3.73
2018-08-04T03:09:50.313Z,4.10
2018-08-04T03:12:19.600Z,3.70
2018-08-04T03:14:49.047Z,3.93
2018-08-04T03:17:18.297Z,3.60
2018-08-04T03:19:48.220Z,3.20
2018-08-04T03:22:17.483Z,3.90
2018-08-04T03:24:46.988Z,3.90
2018-08-04T03:27:16.284Z,3.97
2018-08-04T03:29:45.573Z,3.77
2018-08-04T03:32:14.838Z,4.03
2018-08-04T03:34:44.112Z,3.53
2018-08-04T03:37:13.435Z,3.70
2018-08-04T03:39:42.801Z,4.17
2018-08-04T03:42:13.474Z,4.70
2018-08-04T03:44:42.736Z,3.80
2018-08-04T03:47:12.014Z,4.20
2018-08-04T03:49:42.163Z,3.63
2018-08-04T03:52:11.398Z,3.30
2018-08-04T03:54:40.671Z,4.00
2018-08-04T03:57:09.938Z,3.33
2018-08-04T03:59:39.393Z,3.03
2018-08-04T04:02:08.778Z,3.30
2018-08-04T04:04:38.507Z,3.37
2018-08-04T04:07:08.390Z,3.60
2018-08-04T04:09:37.630Z,3.77
2018-08-04T04:12:06.955Z,4.63
2018-08-04T04:14:36.246Z,4.30
2018-08-04T04:17:05.552Z,4.67
2018-08-04T04:19:34.810Z,5.33
2018-08-04T04:22:04.102Z,5.90
2018-08-04T04:24:33.327Z,6.60
2018-08-04T04:27:02.994Z,5.27
2018-08-04T04:29:32.227Z,4.33
2018-08-04T04:32:01.510Z,3.90
2018-08-04T04:34:30.936Z,4.33
2018-08-04T04:37:00.288Z,3.77
2018-08-04T04:39:29.498Z,4.13
2018-08-04T04:41:58.791Z,4.40
2018-08-04T04:44:28.067Z,4.40
2018-08-04T04:46:57.391Z,4.07
2018-08-04T04:49:27.544Z,3.47
2018-08-04T04:51:56.818Z,3.13
2018-08-04T04:54:26.058Z,3.17
2018-08-04T04:56:55.314Z,3.80
2018-08-04T04:59:24.575Z,3.10
2018-08-04T05:01:53.843Z,4.00
2018-08-04T05:04:23.134Z,3.30
2018-08-04T05:06:52.387Z,3.60
2018-08-04T05:09:21.675Z,2.93
2018-08-04T05:11:51.465Z,3.60
2018-08-04T05:14:20.704Z,3.17
2018-08-04T05:16:49.974Z,2.90
2018-08-04T05:19:19.291Z,2.77
2018-08-04T05:21:48.535Z,3.03
2018-08-04T05:24:18.159Z,3.33
2018-08-04T05:26:47.463Z,3.20
2018-08-04T05:29:16.699Z,3.40
2018-08-04T05:31:45.967Z,3.07
2018-08-04T05:34:15.810Z,3.23
2018-08-04T05:36:45.062Z,3.33
2018-08-04T05:39:14.595Z,3.47
2018-08-04T05:41:43.931Z,3.13
2018-08-04T05:44:13.192Z,3.03
2018-08-04T05:46:42.444Z,3.67
2018-08-04T05:49:11.770Z,3.33
2018-08-04T05:51:41.001Z,3.30
2018-08-04T05:54:10.260Z,3.13
2018-08-04T05:56:39.925Z,2.90
2018-08-04T05:59:09.162Z,2.87
2018-08-04T06:01:38.477Z,3.50
2018-08-04T06:04:08.054Z,3.20
2018-08-04T06:06:37.359Z,3.57
2018-08-04T06:09:09.959Z,3.30
2018-08-04T06:11:40.075Z,3.17
2018-08-04T06:14:09.353Z,2.50
2018-08-04T06:16:38.765Z,3.37
2018-08-04T06:19:08.043Z,3.23
2018-08-04T06:21:37.290Z,3.37
2018-08-04T06:24:06.605Z,4.50
2018-08-04T06:26:36.102Z,3.60
2018-08-04T06:29:05.542Z,3.40
2018-08-04T06:31:35.113Z,2.93
2018-08-04T06:34:04.383Z,3.50
2018-08-04T06:36:33.902Z,3.00
2018-08-04T06:39:04.653Z,3.37
2018-08-04T06:41:33.989Z,3.37
2018-08-04T06:44:03.252Z,3.10
2018-08-04T06:46:32.576Z,3.70
2018-08-04T06:49:02.088Z,4.20
2018-08-04T06:51:31.914Z,3.43
2018-08-04T06:54:01.472Z,3.27
2018-08-04T06:56:31.028Z,3.63
2018-08-04T06:59:00.474Z,3.87
2018-08-04T07:01:30.577Z,3.50
2018-08-04T07:03:59.938Z,5.30
2018-08-04T07:06:29.282Z,3.17
2018-08-04T07:08:58.833Z,3.50
2018-08-04T07:11:28.280Z,3.50
2018-08-04T07:13:57.548Z,3.83
2018-08-04T07:16:26.900Z,3.60
2018-08-04T07:18:56.185Z,4.10
2018-08-04T07:21:25.503Z,3.33
2018-08-04T07:23:55.315Z,2.80
2018-08-04T07:26:24.666Z,2.90
2018-08-04T07:28:54.083Z,3.27
2018-08-04T07:31:23.408Z,3.37
2018-08-04T07:33:52.770Z,2.90
2018-08-04T07:36:22.450Z,3.30
2018-08-04T07:38:51.783Z,3.10
2018-08-04T07:41:21.288Z,3.57
2018-08-04T07:43:50.690Z,4.13
2018-08-04T07:46:20.918Z,3.20
2018-08-04T07:48:51.195Z,2.47
2018-08-04T07:51:20.528Z,3.20
2018-08-04T07:53:49.922Z,2.60
2018-08-04T07:56:19.321Z,2.50
2018-08-04T07:58:48.806Z,2.40
2018-08-04T08:01:18.186Z,2.70
2018-08-04T08:03:47.508Z,2.60
2018-08-04T08:06:16.879Z,3.20
2018-08-04T08:08:46.446Z,2.50
2018-08-04T08:11:15.860Z,2.73
2018-08-04T08:13:45.123Z,2.63
2018-08-04T08:16:14.519Z,3.10
2018-08-04T08:18:43.831Z,2.87
2018-08-04T08:21:13.261Z,2.63
2018-08-04T08:23:42.657Z,2.73
2018-08-04T08:26:14.512Z,2.70
2018-08-04T08:28:44.339Z,3.13
2018-08-04T08:31:13.692Z,2.50
2018-08-04T08:33:43.028Z,2.93
2018-08-04T08:36:12.150Z,2.50
2018-08-04T08:38:41.523Z,2.20
2018-08-04T08:41:10.833Z,2.70
2018-08-04T08:43:40.229Z,2.77
2018-08-04T08:46:09.919Z,2.30
2018-08-04T08:48:39.226Z,2.20
2018-08-04T08:51:08.705Z,2.43
2018-08-04T08:53:38.129Z,2.40
2018-08-04T08:56:07.485Z,3.70
2018-08-04T08:58:36.886Z,2.13
2018-08-04T09:01:06.186Z,2.17
2018-08-04T09:03:35.648Z,6.37
2018-08-04T09:06:05.176Z,2.60
2018-08-04T09:08:34.685Z,2.10
2018-08-04T09:11:03.957Z,2.60
2018-08-04T09:13:33.616Z,2.47
2018-08-04T09:16:02.910Z,2.67
2018-08-04T09:18:32.315Z,2.33
2018-08-04T09:21:01.724Z,2.33
2018-08-04T09:23:31.236Z,2.60
2018-08-04T09:26:00.623Z,2.20
2018-08-04T09:28:29.956Z,2.17
2018-08-04T09:30:59.373Z,2.17
2018-08-04T09:33:28.698Z,2.27
2018-08-04T09:35:58.193Z,2.00
2018-08-04T09:38:27.833Z,2.07
2018-08-04T09:40:57.449Z,2.50
2018-08-04T09:43:26.807Z,2.03
2018-08-04T09:45:56.106Z,2.80
2018-08-04T09:48:25.889Z,2.20
2018-08-04T09:50:55.257Z,2.60
2018-08-04T09:53:24.558Z,2.57
2018-08-04T09:55:53.912Z,2.40
2018-08-04T09:58:23.432Z,2.67
2018-08-04T10:00:58.086Z,2.60
2018-08-04T10:03:27.454Z,2.47
2018-08-04T10:05:56.765Z,2.73
2018-08-04T10:08:26.140Z,2.53
2018-08-04T10:10:55.480Z,2.60
2018-08-04T10:13:24.767Z,2.50
2018-08-04T10:15:54.078Z,2.93
2018-08-04T10:18:23.541Z,2.20
2018-08-04T10:20:52.994Z,2.43
2018-08-04T10:23:22.255Z,3.17
2018-08-04T10:25:51.767Z,2.80
2018-08-04T10:28:21.455Z,2.90
2018-08-04T10:30:50.758Z,2.17
2018-08-04T10:33:20.084Z,2.30
2018-08-04T10:35:49.415Z,2.83
2018-08-04T10:38:18.783Z,3.10
2018-08-04T10:40:48.160Z,2.63
2018-08-04T10:44:18.735Z,2.43
2018-08-04T10:46:48.150Z,2.00
2018-08-04T10:49:17.533Z,1.97
2018-08-04T10:51:46.815Z,2.17
2018-08-04T10:54:16.136Z,2.20
2018-08-04T10:56:45.420Z,2.30
2018-08-04T10:59:14.738Z,2.33
2018-08-04T11:01:44.400Z,1.97
2018-08-04T11:04:13.788Z,1.97
2018-08-04T11:06:43.089Z,1.90
2018-08-04T11:09:12.662Z,1.97
2018-08-04T11:11:41.980Z,1.90
2018-08-04T11:14:11.225Z,1.93
2018-08-04T11:16:41.349Z,1.90
2018-08-04T11:19:10.687Z,2.07
2018-08-04T11:21:40.081Z,2.10
2018-08-04T11:24:09.796Z,2.20
2018-08-04T11:26:39.157Z,2.10
2018-08-04T11:29:08.470Z,1.80
2018-08-04T11:31:37.827Z,1.90
2018-08-04T11:34:07.200Z,2.10
2018-08-04T11:36:36.491Z,2.20
2018-08-04T11:39:09.378Z,2.10
2018-08-04T11:41:38.806Z,2.40
2018-08-04T11:44:08.454Z,1.67
2018-08-04T11:46:38.163Z,1.80
2018-08-04T11:49:07.777Z,1.87
2018-08-04T11:51:37.316Z,1.97
2018-08-04T11:54:06.613Z,1.67
2018-08-04T11:56:35.927Z,1.83
2018-08-04T11:59:05.244Z,2.23
2018-08-04T12:01:34.588Z,2.33
2018-08-04T12:04:03.608Z,1.90
2018-08-04T12:06:33.215Z,2.13
2018-08-04T12:09:02.884Z,2.10
2018-08-04T12:11:32.220Z,2.10
2018-08-04T12:14:01.539Z,1.93
2018-08-04T12:16:30.863Z,2.23
2018-08-04T12:19:00.117Z,2.40
2018-08-04T12:21:29.456Z,2.13
2018-08-04T12:23:58.844Z,1.90
2018-08-04T12:26:28.291Z,2.30
2018-08-04T12:28:57.595Z,2.00
2018-08-04T12:31:27.387Z,2.20
2018-08-04T12:33:56.603Z,1.93
2018-08-04T12:36:25.894Z,3.70
2018-08-04T12:38:55.572Z,2.20
2018-08-04T12:41:24.887Z,2.10
2018-08-04T12:43:54.379Z,2.30
2018-08-04T12:46:23.716Z,2.50
2018-08-04T12:48:53.185Z,1.47
2018-08-04T12:51:22.471Z,1.70
2018-08-04T12:53:51.875Z,1.63
2018-08-04T12:56:21.194Z,1.93
2018-08-04T12:58:50.490Z,2.40
2018-08-04T13:01:19.833Z,2.17
2018-08-04T13:03:49.199Z,2.00
2018-08-04T13:06:18.423Z,1.93
2018-08-04T13:08:47.786Z,1.40
2018-08-04T13:11:17.097Z,1.77
2018-08-04T13:13:46.360Z,1.80
2018-08-04T13:16:16.273Z,2.17
2018-08-04T13:18:45.579Z,1.80
2018-08-04T13:21:14.840Z,1.57
2018-08-04T13:23:44.163Z,1.87
2018-08-04T13:26:13.463Z,2.07
2018-08-04T13:28:42.899Z,1.90
2018-08-04T13:31:12.947Z,1.70
2018-08-04T13:33:42.253Z,1.70
2018-08-04T13:36:11.551Z,1.53
2018-08-04T13:38:41.489Z,1.47
2018-08-04T13:41:10.874Z,1.90
2018-08-04T13:43:40.217Z,2.00
2018-08-04T13:46:09.425Z,1.63
2018-08-04T13:48:38.842Z,1.83
2018-08-04T13:51:08.177Z,1.57
2018-08-04T13:53:37.521Z,1.83
2018-08-04T13:56:07.448Z,1.20
2018-08-04T13:58:36.732Z,1.20
2018-08-04T14:01:06.768Z,1.87
2018-08-04T14:03:36.318Z,1.50
2018-08-04T14:06:06.444Z,1.87
2018-08-04T14:08:35.769Z,1.63
2018-08-04T14:11:05.094Z,1.60
2018-08-04T14:13:34.429Z,1.70
2018-08-04T14:16:03.811Z,1.53
2018-08-04T14:18:32.832Z,1.90
2018-08-04T14:21:02.140Z,1.37
2018-08-04T14:23:31.594Z,1.40
2018-08-04T14:26:01.070Z,1.13
2018-08-04T14:28:30.605Z,1.10
2018-08-04T14:30:59.881Z,1.10
2018-08-04T14:33:29.160Z,1.33
2018-08-04T14:35:58.704Z,1.40
2018-08-04T14:38:28.047Z,1.20
2018-08-04T14:40:57.448Z,1.07
2018-08-04T14:43:26.491Z,1.63
2018-08-04T14:45:56.446Z,1.60
2018-08-04T14:48:25.718Z,1.50
2018-08-04T14:50:55.573Z,1.70
2018-08-04T14:53:24.985Z,1.20
2018-08-04T14:55:54.536Z,1.80
2018-08-04T14:58:24.015Z,1.50
2018-08-04T15:00:53.323Z,2.00
2018-08-04T15:03:22.564Z,1.67
2018-08-04T15:05:52.111Z,1.40
2018-08-04T15:08:21.995Z,1.40
2018-08-04T15:10:51.540Z,1.63
2018-08-04T15:13:21.026Z,1.70
2018-08-04T15:15:50.632Z,2.00
2018-08-04T15:18:19.974Z,1.57
2018-08-04T15:20:50.879Z,2.17
2018-08-04T15:23:19.965Z,1.80
2018-08-04T15:25:49.297Z,1.70
2018-08-04T15:28:18.615Z,2.10
2018-08-04T15:30:48.170Z,1.90
2018-08-04T15:33:17.439Z,1.80
2018-08-04T15:35:46.927Z,1.73
2018-08-04T15:38:16.224Z,1.30
2018-08-04T15:40:45.832Z,2.20
2018-08-04T15:43:15.104Z,1.60
2018-08-04T15:45:44.462Z,1.67
2018-08-04T15:48:13.756Z,1.40
2018-08-04T15:50:43.006Z,1.90
2018-08-04T15:53:12.710Z,1.50
2018-08-04T15:55:42.056Z,1.97
2018-08-04T15:58:11.340Z,1.80
2018-08-04T16:00:41.455Z,1.37
2018-08-04T16:03:10.734Z,1.83
2018-08-04T16:05:40.031Z,1.93
2018-08-04T16:08:09.354Z,1.53
2018-08-04T16:10:38.684Z,1.83
2018-08-04T16:13:07.936Z,2.40
2018-08-04T16:15:37.486Z,2.07
2018-08-04T16:18:06.789Z,1.87
2018-08-04T16:20:36.059Z,1.90
2018-08-04T16:23:05.490Z,1.50
2018-08-04T16:25:34.827Z,1.77
2018-08-04T16:28:04.217Z,1.67
2018-08-04T16:30:33.549Z,1.20
2018-08-04T16:33:02.837Z,2.03
2018-08-04T16:35:32.139Z,1.80
2018-08-04T16:38:01.607Z,2.10
2018-08-04T16:40:30.841Z,1.73
2018-08-04T16:43:00.132Z,2.10
2018-08-04T16:45:29.426Z,1.87
2018-08-04T16:47:59.008Z,2.00
2018-08-04T16:50:28.305Z,2.00
2018-08-04T16:52:57.603Z,2.37
2018-08-04T16:55:26.934Z,1.90
2018-08-04T16:57:56.229Z,2.10
2018-08-04T17:00:26.082Z,1.90
2018-08-04T17:02:55.504Z,2.40
2018-08-04T17:05:24.555Z,2.10
2018-08-04T17:07:53.859Z,2.27
2018-08-04T17:10:24.353Z,2.20
2018-08-04T17:12:53.690Z,2.63
2018-08-04T17:15:23.008Z,2.40
2018-08-04T17:17:52.307Z,2.37
2018-08-04T17:20:21.601Z,2.20
2018-08-04T17:22:51.100Z,2.80
2018-08-04T17:25:20.616Z,3.20
2018-08-04T17:27:49.895Z,6.07
2018-08-04T17:30:19.228Z,5.07
2018-08-04T17:32:48.524Z,4.63
2018-08-04T17:35:17.840Z,5.40
2018-08-04T17:37:47.072Z,3.30
2018-08-04T17:40:16.577Z,2.40
2018-08-04T17:42:46.306Z,2.13
2018-08-04T17:45:15.785Z,2.30
2018-08-04T17:47:45.086Z,2.37
2018-08-04T17:50:14.411Z,2.50
2018-08-04T17:52:43.791Z,2.53
2018-08-04T17:55:13.222Z,2.30
2018-08-04T17:57:42.880Z,2.70
2018-08-04T18:00:12.284Z,2.13
2018-08-04T18:02:41.910Z,2.63
2018-08-04T18:05:11.300Z,2.90
2018-08-04T18:07:40.715Z,2.80
2018-08-04T18:10:10.213Z,2.27
2018-08-04T18:12:39.800Z,1.87
2018-08-04T18:15:09.490Z,2.20
2018-08-04T18:17:38.968Z,2.70
2018-08-04T18:20:08.288Z,2.37
2018-08-04T18:22:37.623Z,2.30
2018-08-04T18:25:07.131Z,3.30
2018-08-04T18:27:36.450Z,3.30
2018-08-04T18:30:05.707Z,3.37
2018-08-04T18:32:34.926Z,4.63
2018-08-04T18:35:04.316Z,3.93
2018-08-04T18:37:33.490Z,5.00
2018-08-04T18:40:02.893Z,3.23
2018-08-04T18:42:32.198Z,2.37
2018-08-04T18:45:01.700Z,2.50
2018-08-04T18:47:31.020Z,2.00
2018-08-04T18:50:00.523Z,3.13
2018-08-04T18:52:30.159Z,1.87
2018-08-04T18:54:59.474Z,2.00
2018-08-04T18:57:28.834Z,2.10
2018-08-04T18:59:58.772Z,2.20
2018-08-04T19:02:28.130Z,2.50
2018-08-04T19:04:57.570Z,2.00
2018-08-04T19:07:27.018Z,2.30
2018-08-04T19:09:56.305Z,2.10
2018-08-04T19:12:25.689Z,2.17
2018-08-04T19:14:55.276Z,2.00
2018-08-04T19:17:24.664Z,2.20
2018-08-04T19:19:54.003Z,2.00
2018-08-04T19:22:23.333Z,1.90
2018-08-04T19:24:52.479Z,1.50
2018-08-04T19:27:21.893Z,1.50
2018-08-04T19:29:51.363Z,1.90
2018-08-04T19:32:20.651Z,1.73
2018-08-04T19:34:50.236Z,2.00
2018-08-04T19:37:19.638Z,1.60
2018-08-04T19:39:49.168Z,2.30
2018-08-04T19:42:18.648Z,2.00
2018-08-04T19:44:48.194Z,2.33
2018-08-04T19:47:17.481Z,1.80
2018-08-04T19:49:47.482Z,2.30
2018-08-04T19:52:16.814Z,2.30
2018-08-04T19:54:46.078Z,2.00
2018-08-04T19:57:17.506Z,2.57
2018-08-04T19:59:47.183Z,2.30
2018-08-04T20:02:16.709Z,2.00
2018-08-04T20:04:46.200Z,2.00
2018-08-04T20:07:16.261Z,2.00
2018-08-04T20:09:45.740Z,2.57
2018-08-04T20:12:15.036Z,2.00
2018-08-04T20:14:44.361Z,1.90
2018-08-04T20:17:13.700Z,1.47
2018-08-04T20:19:43.946Z,2.23
2018-08-04T20:22:17.190Z,1.93
2018-08-04T20:24:47.167Z,2.00
2018-08-04T20:27:16.598Z,1.80
2018-08-04T20:29:46.124Z,2.00
2018-08-04T20:32:15.457Z,1.77
2018-08-04T20:34:44.869Z,1.80
2018-08-04T20:37:14.240Z,2.43
2018-08-04T20:39:43.586Z,1.70
2018-08-04T20:42:12.974Z,2.17
2018-08-04T20:44:42.582Z,2.37
2018-08-04T20:47:11.886Z,2.23
2018-08-04T20:49:41.248Z,2.20
2018-08-04T20:52:10.597Z,1.80
2018-08-04T20:54:39.958Z,2.20
2018-08-04T20:57:09.430Z,2.13
2018-08-04T20:59:38.774Z,2.20
2018-08-04T21:02:08.165Z,2.10
2018-08-04T21:04:37.867Z,2.70
2018-08-04T21:07:07.895Z,2.10
2018-08-04T21:09:37.119Z,2.30
2018-08-04T21:12:06.507Z,2.50
2018-08-04T21:14:35.858Z,2.80
2018-08-04T21:17:05.176Z,1.80
2018-08-04T21:19:34.455Z,1.90
2018-08-04T21:22:03.835Z,1.87
2018-08-04T21:24:33.154Z,2.20
2018-08-04T21:27:02.421Z,2.30
2018-08-04T21:29:32.320Z,2.53
2018-08-04T21:32:01.635Z,1.77
2018-08-04T21:34:30.966Z,2.10
2018-08-04T21:37:00.267Z,1.60
2018-08-04T21:39:29.600Z,2.10
2018-08-04T21:41:58.903Z,1.90
2018-08-04T21:44:28.509Z,2.30
2018-08-04T21:46:57.933Z,2.00
2018-08-04T21:49:27.332Z,2.60
2018-08-04T21:51:56.986Z,2.17
2018-08-04T21:54:26.291Z,2.50
2018-08-04T21:56:55.602Z,2.30
2018-08-04T21:59:24.924Z,2.80
2018-08-04T22:01:54.348Z,3.80
2018-08-04T22:04:23.602Z,2.70
2018-08-04T22:08:12.515Z,3.37
2018-08-04T22:10:41.823Z,2.40
2018-08-04T22:13:11.169Z,3.00
2018-08-04T22:15:40.467Z,3.13
2018-08-04T22:18:09.711Z,2.70
2018-08-04T22:20:39.002Z,2.40
2018-08-04T22:23:08.431Z,2.47
2018-08-04T22:25:37.762Z,2.40
2018-08-04T22:28:07.627Z,2.73
2018-08-04T22:30:37.450Z,3.00
2018-08-04T22:33:07.235Z,2.97
2018-08-04T22:35:36.495Z,2.50
2018-08-04T22:38:05.899Z,2.63
2018-08-04T22:40:35.205Z,2.50
2018-08-04T22:43:04.529Z,2.50
2018-08-04T22:46:02.579Z,2.33
2018-08-04T22:48:32.321Z,2.00
2018-08-04T22:51:01.651Z,2.83
2018-08-04T22:53:31.176Z,2.50
2018-08-04T22:56:00.474Z,2.83
2018-08-04T22:58:29.811Z,2.77
2018-08-04T23:00:59.236Z,2.57
2018-08-04T23:03:35.045Z,2.50
2018-08-04T23:06:04.814Z,2.23
2018-08-04T23:08:34.058Z,2.60
2018-08-04T23:11:03.406Z,2.50
2018-08-04T23:13:32.715Z,2.50
2018-08-04T23:16:02.011Z,2.20
2018-08-04T23:18:31.345Z,2.47
2018-08-04T23:21:00.749Z,2.37
2018-08-04T23:23:30.035Z,3.00
2018-08-04T23:25:59.337Z,2.77
2018-08-04T23:28:29.064Z,2.70
2018-08-04T23:30:58.629Z,2.57
2018-08-04T23:33:27.906Z,2.73
2018-08-04T23:35:57.310Z,3.00
2018-08-04T23:38:26.679Z,2.87
2018-08-04T23:40:55.999Z,3.00
2018-08-04T23:43:25.303Z,3.50
2018-08-04T23:45:54.614Z,2.83
2018-08-04T23:48:24.418Z,3.33
2018-08-04T23:50:54.199Z,3.00
2018-08-04T23:53:23.461Z,2.80
2018-08-04T23:55:52.784Z,3.47
2018-08-04T23:58:22.093Z,3.20
